createdAt,value
2023-11-30T00:00:02.082Z,76.80
2023-11-30T00:02:33.154Z,68.20
2023-11-30T00:05:01.593Z,73.10
2023-11-30T00:07:29.702Z,70.50
2023-11-30T00:09:57.768Z,72.50
2023-11-30T00:12:25.993Z,95.10
2023-11-30T00:14:54.088Z,69.10
2023-11-30T00:17:22.418Z,70.60
2023-11-30T00:19:50.562Z,72.00
2023-11-30T00:22:18.728Z,72.70
2023-11-30T00:24:46.834Z,71.20
2023-11-30T00:27:14.918Z,62.90
2023-11-30T00:29:42.946Z,62.80
2023-11-30T00:32:14.321Z,65.20
2023-11-30T00:34:42.518Z,68.10
2023-11-30T00:37:12.712Z,74.10
2023-11-30T00:39:40.866Z,79.30
2023-11-30T00:42:09.047Z,73.60
2023-11-30T00:44:38.799Z,80.00
2023-11-30T00:47:06.975Z,78.30
2023-11-30T00:49:35.353Z,69.20
2023-11-30T00:52:03.496Z,62.80
2023-11-30T00:54:31.586Z,68.10
2023-11-30T00:56:59.672Z,70.30
2023-11-30T00:59:27.900Z,63.40
2023-11-30T01:01:56.384Z,79.60
2023-11-30T01:04:24.639Z,70.20
2023-11-30T01:06:53.854Z,68.60
2023-11-30T01:09:22.100Z,65.10
2023-11-30T01:11:50.161Z,76.00
2023-11-30T01:14:18.309Z,72.30
2023-11-30T01:16:49.569Z,71.30
2023-11-30T01:19:20.150Z,71.10
2023-11-30T01:21:48.489Z,68.40
2023-11-30T01:24:16.760Z,70.40
2023-11-30T01:26:45.086Z,65.80
2023-11-30T01:29:13.091Z,58.70
2023-11-30T01:31:41.278Z,65.70
2023-11-30T01:34:10.131Z,71.30
2023-11-30T01:36:38.536Z,73.60
2023-11-30T01:39:09.082Z,73.90
2023-11-30T01:41:37.699Z,73.20
2023-11-30T01:44:06.855Z,70.30
2023-11-30T01:46:39.829Z,72.00
2023-11-30T01:49:08.850Z,72.80
2023-11-30T01:51:37.694Z,72.90
2023-11-30T01:54:08.435Z,76.10
2023-11-30T01:56:40.722Z,71.70
2023-11-30T01:59:10.735Z,73.60
2023-11-30T02:01:39.022Z,64.90
2023-11-30T02:04:14.807Z,62.00
2023-11-30T02:09:15.303Z,58.30
2023-11-30T02:11:44.154Z,581.70
2023-11-30T02:14:13.010Z,98.70
2023-11-30T02:16:44.472Z,85.00
2023-11-30T02:19:12.964Z,92.40
2023-11-30T02:21:55.923Z,93.20
2023-11-30T02:24:27.132Z,78.80
2023-11-30T02:26:55.802Z,71.70
2023-11-30T02:29:23.851Z,64.90
2023-11-30T02:31:52.837Z,64.90
2023-11-30T02:34:31.466Z,65.70
2023-11-30T02:37:03.016Z,64.90
2023-11-30T02:39:31.175Z,65.70
2023-11-30T02:42:01.581Z,64.10
2023-11-30T02:44:29.978Z,61.10
2023-11-30T02:47:03.890Z,58.30
2023-11-30T02:49:31.955Z,55.50
2023-11-30T02:52:02.948Z,56.80
2023-11-30T02:54:34.261Z,64.50
2023-11-30T02:57:02.947Z,65.20
2023-11-30T02:59:32.412Z,73.40
2023-11-30T03:02:04.013Z,66.20
2023-11-30T03:04:32.160Z,108.00
2023-11-30T03:07:00.188Z,97.90
2023-11-30T03:09:28.413Z,81.90
2023-11-30T03:11:56.554Z,71.70
2023-11-30T03:14:25.393Z,59.40
2023-11-30T03:16:53.568Z,60.10
2023-11-30T03:19:21.950Z,59.60
2023-11-30T03:21:55.899Z,60.20
2023-11-30T03:24:24.309Z,63.40
2023-11-30T03:26:52.430Z,62.40
2023-11-30T03:29:20.634Z,59.90
2023-11-30T03:31:51.668Z,62.50
2023-11-30T03:34:20.709Z,57.90
2023-11-30T03:36:48.859Z,60.40
2023-11-30T03:39:17.125Z,57.40
2023-11-30T03:41:45.165Z,61.40
2023-11-30T03:44:13.753Z,56.40
2023-11-30T03:46:41.940Z,58.50
2023-11-30T03:49:10.090Z,56.20
2023-11-30T03:51:38.096Z,65.80
2023-11-30T03:54:06.324Z,60.50
2023-11-30T03:56:34.570Z,63.10
2023-11-30T03:59:02.797Z,60.40
2023-11-30T04:01:31.064Z,61.60
2023-11-30T04:03:59.239Z,60.30
2023-11-30T04:06:27.406Z,53.80
2023-11-30T04:08:55.812Z,54.50
2023-11-30T04:11:23.829Z,60.00
2023-11-30T04:13:52.006Z,56.00
2023-11-30T04:16:20.496Z,62.10
2023-11-30T04:18:48.591Z,54.30
2023-11-30T04:21:16.809Z,59.60
2023-11-30T04:23:46.264Z,64.30
2023-11-30T04:26:14.284Z,57.30
2023-11-30T04:28:42.484Z,66.00
2023-11-30T04:31:10.794Z,64.20
2023-11-30T04:33:38.903Z,60.90
2023-11-30T04:36:07.688Z,69.50
2023-11-30T04:38:38.811Z,65.40
2023-11-30T04:41:10.555Z,64.60
2023-11-30T04:43:38.746Z,66.80
2023-11-30T04:46:07.101Z,66.90
2023-11-30T04:48:35.364Z,71.40
2023-11-30T04:51:04.049Z,69.50
2023-11-30T04:53:33.412Z,66.30
2023-11-30T04:56:01.399Z,62.40
2023-11-30T04:58:29.439Z,64.90
2023-11-30T05:00:57.724Z,71.90
2023-11-30T05:03:25.921Z,72.00
2023-11-30T05:05:56.760Z,69.30
2023-11-30T05:08:24.764Z,70.80
2023-11-30T05:10:52.894Z,74.20
2023-11-30T05:13:20.891Z,74.10
2023-11-30T05:15:48.989Z,70.50
2023-11-30T05:18:17.230Z,69.30
2023-11-30T05:20:45.245Z,72.00
2023-11-30T05:23:13.535Z,66.80
2023-11-30T05:25:41.660Z,68.80
2023-11-30T05:28:09.797Z,69.50
2023-11-30T05:30:37.981Z,71.40
2023-11-30T05:33:12.109Z,63.20
2023-11-30T05:35:40.232Z,72.20
2023-11-30T05:38:08.600Z,72.80
2023-11-30T05:40:37.017Z,68.00
2023-11-30T05:43:05.047Z,62.00
2023-11-30T05:45:33.350Z,67.20
2023-11-30T05:48:01.450Z,61.10
2023-11-30T05:50:29.645Z,60.70
2023-11-30T05:52:57.935Z,59.40
2023-11-30T05:55:28.520Z,60.10
2023-11-30T05:57:56.631Z,57.20
2023-11-30T06:00:24.877Z,60.80
2023-11-30T06:02:53.851Z,62.20
2023-11-30T06:05:22.144Z,64.00
2023-11-30T06:07:50.223Z,57.50
2023-11-30T06:10:21.415Z,63.80
2023-11-30T06:12:54.940Z,57.00
2023-11-30T06:15:23.301Z,64.60
2023-11-30T06:17:53.804Z,58.70
2023-11-30T06:20:22.063Z,54.10
2023-11-30T06:22:50.124Z,58.10
2023-11-30T06:25:21.345Z,60.50
2023-11-30T06:27:49.639Z,55.20
2023-11-30T06:30:18.291Z,51.10
2023-11-30T06:32:58.149Z,57.50
2023-11-30T06:35:29.129Z,54.40
2023-11-30T06:37:57.387Z,55.30
2023-11-30T06:40:34.830Z,56.60
2023-11-30T06:43:02.843Z,49.40
2023-11-30T06:45:34.366Z,58.60
2023-11-30T06:48:08.073Z,60.70
2023-11-30T06:50:36.244Z,64.20
2023-11-30T06:53:12.404Z,70.60
2023-11-30T06:55:43.794Z,70.30
2023-11-30T06:58:12.037Z,82.80
2023-11-30T07:00:40.607Z,86.30
2023-11-30T07:03:11.302Z,91.00
2023-11-30T07:05:39.446Z,98.40
2023-11-30T07:08:13.038Z,78.60
2023-11-30T07:10:44.064Z,78.50
2023-11-30T07:13:12.221Z,78.20
2023-11-30T07:15:40.833Z,99.20
2023-11-30T07:18:10.571Z,97.10
2023-11-30T07:20:39.057Z,102.00
2023-11-30T07:23:07.538Z,99.60
2023-11-30T07:25:35.686Z,96.20
2023-11-30T07:28:05.177Z,90.10
2023-11-30T07:30:33.992Z,77.90
2023-11-30T07:33:02.220Z,75.60
2023-11-30T07:35:30.691Z,75.30
2023-11-30T07:37:59.189Z,71.80
2023-11-30T07:40:27.308Z,69.90
2023-11-30T07:42:55.549Z,65.70
2023-11-30T07:45:24.781Z,72.40
2023-11-30T07:47:53.061Z,73.30
2023-11-30T07:50:21.226Z,68.50
2023-11-30T07:52:49.895Z,67.50
2023-11-30T07:55:18.107Z,65.70
2023-11-30T07:57:47.866Z,68.60
2023-11-30T08:00:17.094Z,65.00
2023-11-30T08:02:45.256Z,61.40
2023-11-30T08:05:13.900Z,60.30
2023-11-30T08:07:41.950Z,58.00
2023-11-30T08:10:10.120Z,55.50
2023-11-30T08:12:38.470Z,51.20
2023-11-30T08:15:08.247Z,51.20
2023-11-30T08:17:36.868Z,46.80
2023-11-30T08:20:05.951Z,48.60
2023-11-30T08:22:34.179Z,50.10
2023-11-30T08:25:06.007Z,47.90
2023-11-30T08:27:37.604Z,46.20
2023-11-30T08:30:06.820Z,41.70
2023-11-30T08:32:35.175Z,45.10
2023-11-30T08:35:03.568Z,48.50
2023-11-30T08:37:33.135Z,47.90
2023-11-30T08:40:01.293Z,57.30
2023-11-30T08:42:29.826Z,63.20
2023-11-30T08:44:58.035Z,60.40
2023-11-30T08:47:26.547Z,67.70
2023-11-30T08:49:54.746Z,68.70
2023-11-30T08:52:24.714Z,65.00
2023-11-30T08:54:53.217Z,65.60
2023-11-30T08:57:21.782Z,61.10
2023-11-30T08:59:50.014Z,67.10
2023-11-30T09:02:18.652Z,67.10
2023-11-30T09:04:46.888Z,78.40
2023-11-30T09:07:15.104Z,79.60
2023-11-30T09:09:45.862Z,79.90
2023-11-30T09:12:16.098Z,78.90
2023-11-30T09:14:44.511Z,85.70
2023-11-30T09:17:12.812Z,75.30
2023-11-30T09:19:41.164Z,76.00
2023-11-30T09:22:09.499Z,84.30
2023-11-30T09:24:37.884Z,69.10
2023-11-30T09:27:06.386Z,123.80
2023-11-30T09:29:37.264Z,52.20
2023-11-30T09:32:05.829Z,49.20
2023-11-30T09:34:34.475Z,57.40
2023-11-30T09:37:02.637Z,37.80
2023-11-30T09:39:31.241Z,40.30
2023-11-30T09:42:10.226Z,66.40
2023-11-30T09:44:39.096Z,39.60
2023-11-30T09:47:07.561Z,82.80
2023-11-30T09:49:36.426Z,41.30
2023-11-30T09:52:05.111Z,26.90
2023-11-30T09:54:33.398Z,49.80
2023-11-30T09:57:02.051Z,42.60
2023-11-30T09:59:33.381Z,48.00
2023-11-30T10:02:04.614Z,45.20
2023-11-30T10:04:35.049Z,115.00
2023-11-30T10:07:24.228Z,46.20
2023-11-30T10:09:57.810Z,28.80
2023-11-30T10:12:39.069Z,25.20
2023-11-30T10:15:10.853Z,26.90
2023-11-30T10:17:39.437Z,29.10
2023-11-30T10:20:28.185Z,37.60
2023-11-30T10:22:56.439Z,22.20
2023-11-30T10:25:27.021Z,35.40
2023-11-30T10:28:11.143Z,36.00
2023-11-30T10:30:53.320Z,30.40
2023-11-30T10:34:05.382Z,24.70
2023-11-30T10:37:22.752Z,25.40
2023-11-30T10:40:01.843Z,27.40
2023-11-30T10:42:52.006Z,23.30
2023-11-30T10:46:05.336Z,30.30
2023-11-30T10:48:35.399Z,20.50
2023-11-30T10:51:08.763Z,16.40
2023-11-30T10:54:04.602Z,16.10
2023-11-30T10:56:36.415Z,23.00
2023-11-30T10:59:12.857Z,15.90
2023-11-30T11:02:01.740Z,13.80
2023-11-30T11:04:30.644Z,16.90
2023-11-30T11:07:10.010Z,97.20
2023-11-30T11:09:44.757Z,15.90
2023-11-30T11:12:36.651Z,12.30
2023-11-30T11:15:06.741Z,7.80
2023-11-30T11:17:34.921Z,10.00
2023-11-30T11:20:04.458Z,17.80
2023-11-30T11:22:36.428Z,17.60
2023-11-30T11:25:07.714Z,10.60
2023-11-30T11:27:36.148Z,9.50
2023-11-30T11:30:09.749Z,10.70
2023-11-30T11:32:45.614Z,11.30
2023-11-30T11:35:37.179Z,10.60
2023-11-30T11:38:05.352Z,9.70
2023-11-30T11:40:49.197Z,13.80
2023-11-30T11:43:22.260Z,31.70
2023-11-30T11:48:32.285Z,20.10
2023-11-30T11:51:03.415Z,10.60
2023-11-30T11:53:46.901Z,8.80
2023-11-30T11:56:15.043Z,10.90
2023-11-30T11:58:46.044Z,14.70
2023-11-30T12:01:35.243Z,9.40
2023-11-30T12:04:05.914Z,9.00
2023-11-30T12:06:43.513Z,11.50
2023-11-30T12:09:14.085Z,15.00
2023-11-30T12:11:42.742Z,23.20
2023-11-30T12:14:10.988Z,11.70
2023-11-30T12:16:39.247Z,12.70
2023-11-30T12:19:09.827Z,21.70
2023-11-30T12:21:44.412Z,13.60
2023-11-30T12:24:18.167Z,10.60
2023-11-30T12:26:46.273Z,21.00
2023-11-30T12:29:14.747Z,8.70
2023-11-30T12:32:00.519Z,8.30
2023-11-30T12:34:34.191Z,16.00
2023-11-30T12:37:07.986Z,10.90
2023-11-30T12:39:38.744Z,18.80
2023-11-30T12:42:30.973Z,33.00
2023-11-30T12:45:07.315Z,25.60
2023-11-30T12:47:35.933Z,33.50
2023-11-30T12:50:33.237Z,51.00
2023-11-30T12:53:01.958Z,60.80
2023-11-30T12:55:30.680Z,46.40
2023-11-30T12:57:59.185Z,52.20
2023-11-30T13:00:27.733Z,145.30
2023-11-30T13:02:55.966Z,162.40
2023-11-30T13:05:24.079Z,26.00
2023-11-30T13:07:56.339Z,105.10
2023-11-30T13:10:28.080Z,39.00
2023-11-30T13:12:56.602Z,36.60
2023-11-30T13:15:24.919Z,157.50
2023-11-30T13:17:53.206Z,69.50
2023-11-30T13:20:21.850Z,62.80
2023-11-30T13:22:50.029Z,48.60
2023-11-30T13:25:18.295Z,35.30
2023-11-30T13:27:47.250Z,32.10
2023-11-30T13:30:17.716Z,39.30
2023-11-30T13:32:46.504Z,99.90
2023-11-30T13:35:14.750Z,82.70
2023-11-30T13:37:43.018Z,58.30
2023-11-30T13:40:12.097Z,29.80
2023-11-30T13:42:40.498Z,42.90
2023-11-30T13:45:08.992Z,39.40
2023-11-30T13:47:39.469Z,26.90
2023-11-30T13:50:19.139Z,37.10
2023-11-30T13:52:54.366Z,67.40
2023-11-30T13:55:22.965Z,23.80
2023-11-30T13:57:51.008Z,23.20
2023-11-30T14:00:19.257Z,17.20
2023-11-30T14:02:48.643Z,33.90
2023-11-30T14:05:17.174Z,37.30
2023-11-30T14:07:45.242Z,121.80
2023-11-30T14:10:13.441Z,26.90
2023-11-30T14:12:41.959Z,19.40
2023-11-30T14:15:23.087Z,22.30
2023-11-30T14:17:54.144Z,26.60
2023-11-30T14:20:22.788Z,41.00
2023-11-30T14:22:50.915Z,39.10
2023-11-30T14:25:19.001Z,46.90
2023-11-30T14:27:47.100Z,62.50
2023-11-30T14:30:24.718Z,73.40
2023-11-30T14:32:52.985Z,163.40
2023-11-30T14:35:33.380Z,159.40
2023-11-30T14:38:01.958Z,159.80
2023-11-30T14:40:30.474Z,104.40
2023-11-30T14:42:58.815Z,60.10
2023-11-30T14:45:27.353Z,50.90
2023-11-30T14:47:55.481Z,57.00
2023-11-30T14:50:26.169Z,59.70
2023-11-30T14:52:54.807Z,60.10
2023-11-30T14:55:23.121Z,57.60
2023-11-30T14:57:51.557Z,56.40
2023-11-30T15:00:19.926Z,61.00
2023-11-30T15:02:48.482Z,60.70
2023-11-30T15:05:16.715Z,54.70
2023-11-30T15:07:44.915Z,53.60
2023-11-30T15:10:14.077Z,55.40
2023-11-30T15:12:42.699Z,37.90
2023-11-30T15:15:14.473Z,32.90
2023-11-30T15:17:48.017Z,28.80
2023-11-30T15:20:17.820Z,53.70
2023-11-30T15:22:46.996Z,63.50
2023-11-30T15:25:15.078Z,73.10
2023-11-30T15:27:43.444Z,98.00
2023-11-30T15:30:12.576Z,107.50
2023-11-30T15:32:40.772Z,146.80
2023-11-30T15:35:09.110Z,147.30
2023-11-30T15:37:37.193Z,113.70
2023-11-30T15:40:10.719Z,141.60
2023-11-30T15:42:38.816Z,119.60
2023-11-30T15:45:10.350Z,78.90
2023-11-30T15:47:40.436Z,61.70
2023-11-30T15:50:08.855Z,71.50
2023-11-30T15:52:39.267Z,62.50
2023-11-30T15:55:12.956Z,55.80
2023-11-30T15:57:46.686Z,64.10
2023-11-30T16:00:15.955Z,56.50
2023-11-30T16:02:44.160Z,58.60
2023-11-30T16:05:15.778Z,58.00
2023-11-30T16:07:44.048Z,52.80
2023-11-30T16:10:12.499Z,53.60
2023-11-30T16:12:43.116Z,55.90
2023-11-30T16:15:11.476Z,50.40
2023-11-30T16:17:43.142Z,45.40
2023-11-30T16:20:12.865Z,42.60
2023-11-30T16:22:42.024Z,55.50
2023-11-30T16:25:12.267Z,100.60
2023-11-30T16:27:42.781Z,65.10
2023-11-30T16:30:11.707Z,101.60
2023-11-30T16:32:39.839Z,136.90
2023-11-30T16:35:09.531Z,131.50
2023-11-30T16:37:37.898Z,126.50
2023-11-30T16:40:10.518Z,120.70
2023-11-30T16:42:38.597Z,126.30
2023-11-30T16:45:10.137Z,81.20
2023-11-30T16:47:38.212Z,65.20
2023-11-30T16:50:07.398Z,58.70
2023-11-30T16:52:35.507Z,54.10
2023-11-30T16:55:03.736Z,39.80
2023-11-30T16:57:31.919Z,29.90
2023-11-30T17:00:00.436Z,38.00
2023-11-30T17:02:28.865Z,93.00
2023-11-30T17:05:00.426Z,126.50
2023-11-30T17:07:31.602Z,120.20
2023-11-30T17:09:59.742Z,141.30
2023-11-30T17:12:30.442Z,199.90
2023-11-30T17:14:58.552Z,173.20
2023-11-30T17:17:26.516Z,215.40
2023-11-30T17:19:54.453Z,229.90
2023-11-30T17:22:22.707Z,137.00
2023-11-30T17:24:51.594Z,121.10
2023-11-30T17:27:19.699Z,97.20
2023-11-30T17:29:47.987Z,112.70
2023-11-30T17:32:17.132Z,393.40
2023-11-30T17:34:47.874Z,329.30
2023-11-30T17:37:16.373Z,250.20
2023-11-30T17:39:44.996Z,216.90
2023-11-30T17:42:13.230Z,198.50
2023-11-30T17:44:42.512Z,180.70
2023-11-30T17:47:10.625Z,180.50
2023-11-30T17:49:39.015Z,136.70
2023-11-30T17:52:07.305Z,130.50
2023-11-30T17:54:35.394Z,117.80
2023-11-30T17:57:03.603Z,113.50
2023-11-30T17:59:32.119Z,109.50
2023-11-30T18:02:00.483Z,88.70
2023-11-30T18:04:29.712Z,70.60
2023-11-30T18:06:58.217Z,72.50
2023-11-30T18:09:27.937Z,83.40
2023-11-30T18:11:56.445Z,83.20
2023-11-30T18:14:25.150Z,79.20
2023-11-30T18:16:53.369Z,93.80
2023-11-30T18:19:21.586Z,138.30
2023-11-30T18:21:49.605Z,106.30
2023-11-30T18:24:18.354Z,108.80
2023-11-30T18:26:48.331Z,135.60
2023-11-30T18:29:16.642Z,151.80
2023-11-30T18:31:44.736Z,136.10
2023-11-30T18:34:12.830Z,135.50
2023-11-30T18:36:41.101Z,128.30
2023-11-30T18:39:32.558Z,134.70
2023-11-30T18:42:00.701Z,117.50
2023-11-30T18:44:28.740Z,118.30
2023-11-30T18:46:56.715Z,132.70
2023-11-30T18:49:24.889Z,123.90
2023-11-30T18:51:54.973Z,122.80
2023-11-30T18:54:23.876Z,186.00
2023-11-30T18:56:52.453Z,217.80
2023-11-30T18:59:20.484Z,207.10
2023-11-30T19:01:53.154Z,171.80
2023-11-30T19:04:21.724Z,155.00
2023-11-30T19:06:49.863Z,343.20
2023-11-30T19:09:20.971Z,407.80
2023-11-30T19:11:49.476Z,164.00
2023-11-30T19:14:17.444Z,157.70
2023-11-30T19:16:45.484Z,181.60
2023-11-30T19:19:14.517Z,171.30
2023-11-30T19:21:43.382Z,165.80
2023-11-30T19:24:16.290Z,138.50
2023-11-30T19:26:45.758Z,134.70
2023-11-30T19:29:14.049Z,173.00
2023-11-30T19:31:42.973Z,232.10
2023-11-30T19:34:11.180Z,221.80
2023-11-30T19:36:39.829Z,231.50
2023-11-30T19:39:10.875Z,190.00
2023-11-30T19:41:46.140Z,178.70
2023-11-30T19:44:14.326Z,178.20
2023-11-30T19:46:44.868Z,170.40
2023-11-30T19:49:12.890Z,171.90
2023-11-30T19:51:41.065Z,176.20
2023-11-30T19:54:09.412Z,190.90
2023-11-30T19:56:37.580Z,180.20
2023-11-30T19:59:05.633Z,216.90
2023-11-30T20:01:34.227Z,228.00
2023-11-30T20:04:02.526Z,245.60
2023-11-30T20:06:31.582Z,248.10
2023-11-30T20:08:59.927Z,255.80
2023-11-30T20:11:28.707Z,218.80
2023-11-30T20:13:57.179Z,242.30
2023-11-30T20:16:26.320Z,213.90
2023-11-30T20:18:54.381Z,200.90
2023-11-30T20:21:22.916Z,186.40
2023-11-30T20:23:53.542Z,191.60
2023-11-30T20:26:21.657Z,180.90
2023-11-30T20:28:50.078Z,169.00
2023-11-30T20:31:18.306Z,172.10
2023-11-30T20:33:47.174Z,229.30
2023-11-30T20:36:15.277Z,202.70
2023-11-30T20:38:43.984Z,198.20
2023-11-30T20:41:12.047Z,187.90
2023-11-30T20:43:43.220Z,184.40
2023-11-30T20:46:14.884Z,184.60
2023-11-30T20:48:43.373Z,183.80
2023-11-30T20:51:12.538Z,180.70
2023-11-30T20:53:41.146Z,175.60
2023-11-30T20:56:09.599Z,168.20
2023-11-30T20:58:37.632Z,174.30
2023-11-30T21:01:06.231Z,177.10
2023-11-30T21:03:34.442Z,169.00
2023-11-30T21:06:03.566Z,198.20
2023-11-30T21:08:31.497Z,177.50
2023-11-30T21:11:01.310Z,177.40
2023-11-30T21:13:32.025Z,185.90
2023-11-30T21:16:00.245Z,156.50
2023-11-30T21:18:28.553Z,145.00
2023-11-30T21:20:56.704Z,148.00
2023-11-30T21:23:25.057Z,147.70
2023-11-30T21:25:54.211Z,145.80
2023-11-30T21:28:22.421Z,143.20
2023-11-30T21:30:50.480Z,155.00
2023-11-30T21:33:19.623Z,137.50
2023-11-30T21:35:47.692Z,133.70
2023-11-30T21:38:15.732Z,125.30
2023-11-30T21:40:44.198Z,121.20
2023-11-30T21:43:12.793Z,129.60
2023-11-30T21:45:40.992Z,123.30
2023-11-30T21:48:09.292Z,125.60
2023-11-30T21:50:37.324Z,129.80
2023-11-30T21:53:05.309Z,135.60
2023-11-30T21:55:33.452Z,133.20
2023-11-30T21:58:01.512Z,131.20
2023-11-30T22:00:29.760Z,134.20
2023-11-30T22:02:59.446Z,132.40
2023-11-30T22:05:35.742Z,136.30
2023-11-30T22:08:05.249Z,134.40
2023-11-30T22:10:33.266Z,125.30
2023-11-30T22:13:01.211Z,131.50
2023-11-30T22:15:32.861Z,125.90
2023-11-30T22:18:00.981Z,126.40
2023-11-30T22:20:29.024Z,133.60
2023-11-30T22:22:57.150Z,128.30
2023-11-30T22:25:25.177Z,130.80
2023-11-30T22:27:53.333Z,124.30
2023-11-30T22:30:21.397Z,122.30
2023-11-30T22:32:49.332Z,127.50
2023-11-30T22:35:17.617Z,126.20
2023-11-30T22:37:45.693Z,121.80
2023-11-30T22:40:13.733Z,126.70
2023-11-30T22:42:41.869Z,117.70
2023-11-30T22:45:10.447Z,125.10
2023-11-30T22:47:38.714Z,124.30
2023-11-30T22:50:07.936Z,135.70
2023-11-30T22:52:38.672Z,134.70
2023-11-30T22:55:07.144Z,129.70
2023-11-30T22:57:37.772Z,138.10
2023-11-30T23:00:09.245Z,139.20
2023-11-30T23:02:37.673Z,142.10
2023-11-30T23:05:06.081Z,147.60
2023-11-30T23:07:36.298Z,142.00
2023-11-30T23:10:08.034Z,141.40
2023-11-30T23:12:36.194Z,139.70
2023-11-30T23:15:04.629Z,132.10
2023-11-30T23:17:32.628Z,137.80
2023-11-30T23:20:00.758Z,129.30
2023-11-30T23:22:31.514Z,122.30
2023-11-30T23:25:09.237Z,129.60
2023-11-30T23:27:37.371Z,129.10
2023-11-30T23:30:05.940Z,118.40
2023-11-30T23:32:34.041Z,119.60
2023-11-30T23:35:02.042Z,131.40
2023-11-30T23:37:30.069Z,123.00
2023-11-30T23:39:58.055Z,117.60
2023-11-30T23:42:28.344Z,116.10
2023-11-30T23:44:56.542Z,120.10
2023-11-30T23:47:24.568Z,119.10
2023-11-30T23:49:52.610Z,122.70
2023-11-30T23:52:21.003Z,117.00
2023-11-30T23:54:48.960Z,116.10
2023-11-30T23:57:17.038Z,112.20
2023-11-30T23:59:45.041Z,108.70
